Ascutney, VT (05030)

10:41 AM EDT on June 25, 2017 (GMT -0400)
Airport Hill | | Change Station

Elev 545 ft 43.37 °N, 72.37 °W | Updated 5 seconds ago

Partly Cloudy
Partly Cloudy
74.9 °F
Feels Like 78 °F
N
0.0
Wind Variable Wind from NE
Gusts 0.0 mph

Today
High -- | Low -- °F
--% Chance of Precip.
Yesterday
High -- | Low -- °F
Precip. -- in
Pressure 29.94 in
Visibility 10.0 miles
Clouds Scattered Clouds 6000 ft
Mostly Cloudy 11000 ft
Heat Index 78 °F
Dew Point 52 °F
Humidity 45%
Rainfall 0.00 in
Snow Depth Not available.
5:10 AM 8:34 PM
Waxing Crescent, 3% visible
METAR KVSF 251354Z AUTO 25009KT 210V270 10SM SCT060 BKN110 23/10 A2995 RMK AO2 SLP139 T02330100
Pressure 29.94 in
Visibility 10.0 miles
Clouds Scattered Clouds 6000 ft
Mostly Cloudy 11000 ft
Heat Index 78 °F
Dew Point 52 °F
Humidity 45%
Rainfall 0.00 in
Snow Depth Not available.
5:10 AM 8:34 PM
Waxing Crescent, 3% visible
METAR KVSF 251354Z AUTO 25009KT 210V270 10SM SCT060 BKN110 23/10 A2995 RMK AO2 SLP139 T02330100

Get Severe Weather Alerts

Thanks for signing up!

Be on the lookout for a verification email in your inbox.

You'll start receiving the daily forecast at 6 AM.

×

10-Day Weather Forecast

Almanac

Astronomy

Jun. 25, 2017 Rise Set
Actual Time
Civil Twilight
Nautical Twilight
Astronomical Twilight
Moon
Length of Visible Light
Length of Day
Tomorrow will be .
, % of the Moon is Illuminated

Today's Extremes

State Highs State Lows

Community

WunderPhotos

Category 6

Welcome to Category 6. This is the collective home for Weather Underground's featured writeups by Dr. Jeff Masters (right), Bob Henson (left), Chris Burt, and other regular contributors.

Nearby

Air Quality

  Air Quality AQ Index Pollutant
Not available.

Snow Depth

Station Depth Elevation

Earthquake Activity

City Distance Mag. Time & Date
Minimum magnitude displayed is 2.5.

Coastal Water Temperatures

Place Temperature

Stations

Nearby Weather Stations

Station Location Temp. Windchill Dew Point Humidity Wind Precip. Elev Updated Type
                   

Watches & Warnings

There are currently no watches in effect.